createdAt,value
2022-11-20T00:01:34.956Z,9.50
2022-11-20T00:04:02.844Z,10.00
2022-11-20T00:06:31.016Z,10.30
2022-11-20T00:09:02.446Z,12.63
2022-11-20T00:11:33.046Z,8.73
2022-11-20T00:14:02.520Z,12.82
2022-11-20T00:19:00.676Z,10.43
2022-11-20T00:21:29.449Z,10.57
2022-11-20T00:23:58.043Z,11.50
2022-11-20T00:26:27.638Z,10.18
2022-11-20T00:28:58.320Z,9.95
2022-11-20T00:31:26.412Z,10.43
2022-11-20T00:33:55.179Z,10.07
2022-11-20T00:36:24.911Z,8.98
2022-11-20T00:39:00.227Z,11.05
2022-11-20T00:41:29.077Z,9.18
2022-11-20T00:43:57.758Z,10.50
2022-11-20T00:46:28.965Z,9.65
2022-11-20T00:48:57.095Z,10.38
2022-11-20T00:51:27.864Z,10.02
2022-11-20T00:53:59.030Z,11.02
2022-11-20T00:56:27.086Z,12.20
2022-11-20T00:58:55.249Z,10.95
2022-11-20T01:01:25.421Z,12.88
2022-11-20T01:03:55.189Z,10.48
2022-11-20T01:06:28.107Z,12.30
2022-11-20T01:08:58.169Z,14.23
2022-11-20T01:11:35.090Z,13.30
2022-11-20T01:14:05.085Z,11.30
2022-11-20T01:16:38.378Z,11.65
2022-11-20T01:19:11.578Z,12.70
2022-11-20T01:21:42.710Z,11.20
2022-11-20T01:24:16.441Z,10.63
2022-11-20T01:26:45.891Z,12.82
2022-11-20T01:29:19.937Z,13.65
2022-11-20T01:31:48.973Z,14.77
2022-11-20T01:34:19.519Z,14.18
2022-11-20T01:36:48.945Z,12.18
2022-11-20T01:39:19.945Z,9.63
2022-11-20T01:42:10.407Z,11.75
2022-11-20T01:44:55.291Z,11.25
2022-11-20T01:47:31.139Z,8.80
2022-11-20T01:50:12.897Z,11.70
2022-11-20T01:52:57.781Z,10.85
2022-11-20T01:55:29.793Z,12.35
2022-11-20T01:57:58.005Z,13.65
2022-11-20T02:00:25.824Z,11.80
2022-11-20T02:03:00.243Z,13.38
2022-11-20T02:05:43.047Z,13.55
2022-11-20T02:08:10.780Z,12.98
2022-11-20T02:10:39.577Z,12.35
2022-11-20T02:13:26.262Z,11.25
2022-11-20T02:15:54.386Z,12.45
2022-11-20T02:18:24.799Z,11.52
2022-11-20T02:21:03.957Z,12.25
2022-11-20T02:23:40.851Z,11.40
2022-11-20T02:26:13.312Z,14.20
2022-11-20T02:28:41.693Z,13.05
2022-11-20T02:31:09.219Z,13.32
2022-11-20T02:33:36.774Z,11.70
2022-11-20T02:36:04.630Z,12.80
2022-11-20T02:38:32.698Z,12.68
2022-11-20T02:41:00.365Z,12.40
2022-11-20T02:43:27.896Z,11.90
2022-11-20T02:45:55.463Z,11.85
2022-11-20T02:48:25.202Z,11.65
2022-11-20T02:50:53.229Z,11.80
2022-11-20T02:53:20.738Z,13.98
2022-11-20T02:55:48.234Z,12.65
2022-11-20T02:58:15.799Z,13.93
2022-11-20T03:00:43.736Z,11.20
2022-11-20T03:03:11.239Z,11.13
2022-11-20T03:05:39.275Z,11.20
2022-11-20T03:08:06.976Z,12.70
2022-11-20T03:10:34.474Z,10.13
2022-11-20T03:13:02.000Z,11.35
2022-11-20T03:15:32.359Z,12.35
2022-11-20T03:18:02.851Z,12.52
2022-11-20T03:20:30.971Z,13.57
2022-11-20T03:22:58.581Z,14.50
2022-11-20T03:25:28.652Z,14.10
2022-11-20T03:27:56.380Z,13.60
2022-11-20T03:30:27.592Z,12.68
2022-11-20T03:32:58.177Z,13.02
2022-11-20T03:35:25.823Z,16.08
2022-11-20T03:37:53.370Z,13.82
2022-11-20T03:40:21.183Z,13.50
2022-11-20T03:42:48.891Z,12.27
2022-11-20T03:45:19.736Z,13.57
2022-11-20T03:47:47.594Z,12.25
2022-11-20T03:50:16.665Z,14.48
2022-11-20T03:52:44.291Z,12.57
2022-11-20T03:55:11.838Z,13.60
2022-11-20T03:57:39.326Z,10.65
2022-11-20T04:00:09.765Z,11.45
2022-11-20T04:02:38.566Z,14.00
2022-11-20T04:05:06.618Z,11.20
2022-11-20T04:07:35.569Z,14.27
2022-11-20T04:10:03.713Z,14.15
2022-11-20T04:12:34.511Z,15.15
2022-11-20T04:15:02.252Z,14.82
2022-11-20T04:17:30.115Z,13.50
2022-11-20T04:19:57.778Z,14.55
2022-11-20T04:22:25.694Z,14.32
2022-11-20T04:24:53.545Z,15.40
2022-11-20T04:27:21.770Z,14.82
2022-11-20T04:29:49.356Z,15.43
2022-11-20T04:32:17.062Z,13.90
2022-11-20T04:34:44.620Z,15.85
2022-11-20T04:37:12.424Z,16.35
2022-11-20T04:39:40.173Z,12.95
2022-11-20T04:42:28.667Z,15.73
2022-11-20T04:44:57.139Z,14.32
2022-11-20T04:47:25.038Z,16.35
2022-11-20T04:49:52.754Z,16.95
2022-11-20T04:52:20.401Z,17.25
2022-11-20T04:54:48.026Z,21.05
2022-11-20T04:57:16.417Z,18.17
2022-11-20T04:59:44.860Z,26.17
2022-11-20T05:02:12.677Z,22.20
2022-11-20T05:04:40.129Z,18.77
2022-11-20T05:07:09.544Z,15.68
2022-11-20T05:09:37.110Z,14.75
2022-11-20T05:12:05.237Z,15.25
2022-11-20T05:14:32.855Z,16.80
2022-11-20T05:17:00.577Z,18.10
2022-11-20T05:19:28.112Z,14.85
2022-11-20T05:21:55.673Z,18.27
2022-11-20T05:24:23.279Z,18.35
2022-11-20T05:26:51.281Z,20.92
2022-11-20T05:29:19.024Z,22.95
2022-11-20T05:31:47.126Z,23.98
2022-11-20T05:34:14.897Z,16.65
2022-11-20T05:36:43.045Z,16.95
2022-11-20T05:39:10.794Z,17.45
2022-11-20T05:41:38.660Z,17.02
2022-11-20T05:44:06.319Z,16.75
2022-11-20T05:46:36.117Z,15.63
2022-11-20T05:49:03.904Z,18.33
2022-11-20T05:51:31.402Z,17.35
2022-11-20T05:54:00.135Z,16.83
2022-11-20T05:56:27.910Z,19.77
2022-11-20T05:58:55.571Z,14.40
2022-11-20T06:01:25.875Z,16.48
2022-11-20T06:03:54.823Z,15.18
2022-11-20T06:06:22.694Z,15.93
2022-11-20T06:08:52.270Z,17.42
2022-11-20T06:11:20.284Z,13.75
2022-11-20T06:13:48.516Z,14.52
2022-11-20T06:16:20.044Z,15.07
2022-11-20T06:18:49.876Z,14.90
2022-11-20T06:21:23.286Z,18.73
2022-11-20T06:23:51.955Z,16.58
2022-11-20T06:26:22.648Z,16.25
2022-11-20T06:28:51.923Z,17.20
2022-11-20T06:31:22.011Z,17.08
2022-11-20T06:33:50.443Z,19.10
2022-11-20T06:36:20.783Z,19.48
2022-11-20T06:38:48.851Z,19.33
2022-11-20T06:41:20.488Z,17.05
2022-11-20T06:43:48.957Z,15.30
2022-11-20T06:46:18.686Z,17.35
2022-11-20T06:48:47.722Z,17.75
2022-11-20T06:51:16.111Z,22.55
2022-11-20T06:53:43.861Z,25.45
2022-11-20T06:56:12.307Z,19.58
2022-11-20T06:58:40.259Z,21.58
2022-11-20T07:01:13.069Z,21.52
2022-11-20T07:03:41.847Z,20.70
2022-11-20T07:06:10.633Z,20.92
2022-11-20T07:08:38.573Z,21.10
2022-11-20T07:11:07.961Z,20.25
2022-11-20T07:13:36.337Z,20.40
2022-11-20T07:16:06.769Z,20.15
2022-11-20T07:18:34.362Z,20.85
2022-11-20T07:21:08.034Z,19.10
2022-11-20T07:23:38.393Z,18.35
2022-11-20T07:26:10.991Z,20.08
2022-11-20T07:28:38.882Z,17.23
2022-11-20T07:31:12.392Z,18.70
2022-11-20T07:33:45.619Z,22.55
2022-11-20T07:36:13.196Z,16.85
2022-11-20T07:41:10.303Z,18.67
2022-11-20T07:43:41.225Z,22.10
2022-11-20T07:46:09.282Z,21.58
2022-11-20T07:48:36.846Z,23.05
2022-11-20T07:51:04.461Z,19.75
2022-11-20T07:53:33.354Z,18.57
2022-11-20T07:56:02.634Z,18.92
2022-11-20T07:58:31.215Z,18.48
2022-11-20T08:00:58.865Z,18.80
2022-11-20T08:03:26.442Z,18.00
2022-11-20T08:05:54.179Z,21.20
2022-11-20T08:08:22.623Z,18.52
2022-11-20T08:10:50.327Z,17.77
2022-11-20T08:13:37.158Z,18.65
2022-11-20T08:16:05.159Z,17.75
2022-11-20T08:18:33.196Z,16.13
2022-11-20T08:21:05.887Z,20.52
2022-11-20T08:23:33.512Z,21.80
2022-11-20T08:26:01.116Z,19.80
2022-11-20T08:28:29.324Z,20.63
2022-11-20T08:31:01.695Z,18.83
2022-11-20T08:33:30.049Z,18.88
2022-11-20T08:36:05.716Z,18.45
2022-11-20T08:38:33.938Z,21.17
2022-11-20T08:41:22.211Z,19.75
2022-11-20T08:44:10.549Z,20.70
2022-11-20T08:46:42.015Z,20.95
2022-11-20T08:49:12.162Z,21.10
2022-11-20T08:51:43.417Z,23.42
2022-11-20T08:54:11.312Z,22.88
2022-11-20T08:56:40.332Z,23.45
2022-11-20T08:59:27.039Z,21.20
2022-11-20T09:01:55.678Z,24.55
2022-11-20T09:04:23.576Z,21.50
2022-11-20T09:06:53.738Z,21.35
2022-11-20T09:09:22.323Z,21.58
2022-11-20T09:11:51.358Z,22.40
2022-11-20T09:14:18.916Z,20.15
2022-11-20T09:16:47.727Z,19.90
2022-11-20T09:22:03.538Z,21.15
2022-11-20T09:24:31.609Z,21.70
2022-11-20T09:27:03.739Z,23.98
2022-11-20T09:29:31.531Z,24.92
2022-11-20T09:31:59.351Z,24.33
2022-11-20T09:34:27.307Z,23.63
2022-11-20T09:36:55.285Z,21.23
2022-11-20T09:39:23.310Z,20.50
2022-11-20T09:42:08.479Z,21.13
2022-11-20T09:44:36.012Z,22.52
2022-11-20T09:47:24.348Z,20.70
2022-11-20T09:50:12.931Z,25.08
2022-11-20T09:52:56.723Z,22.98
2022-11-20T09:55:25.594Z,25.95
2022-11-20T09:57:53.710Z,25.83
2022-11-20T10:00:22.427Z,19.70
2022-11-20T10:03:15.174Z,21.35
2022-11-20T10:05:48.520Z,23.70
2022-11-20T10:08:23.886Z,23.55
2022-11-20T10:11:07.325Z,24.83
2022-11-20T10:14:01.783Z,26.85
2022-11-20T10:16:41.023Z,25.25
2022-11-20T10:19:46.647Z,22.95
2022-11-20T10:22:39.861Z,23.67
2022-11-20T10:25:12.973Z,22.05
2022-11-20T10:27:59.034Z,24.70
2022-11-20T10:30:31.198Z,23.33
2022-11-20T10:33:12.745Z,22.10
2022-11-20T10:35:45.652Z,21.95
2022-11-20T10:38:22.146Z,24.25
2022-11-20T10:41:20.424Z,27.63
2022-11-20T10:43:51.805Z,25.83
2022-11-20T10:46:23.242Z,24.05
2022-11-20T10:48:52.417Z,22.13
2022-11-20T10:51:31.595Z,24.00
2022-11-20T10:54:10.749Z,24.27
2022-11-20T10:56:52.784Z,24.08
2022-11-20T10:59:38.735Z,26.88
2022-11-20T11:02:23.906Z,21.75
2022-11-20T11:04:55.283Z,23.38
2022-11-20T11:07:32.578Z,25.73
2022-11-20T11:10:00.532Z,23.98
2022-11-20T11:12:29.723Z,24.70
2022-11-20T11:14:58.802Z,27.98
2022-11-20T11:17:32.528Z,24.13
2022-11-20T11:20:19.578Z,25.33
2022-11-20T11:22:56.756Z,21.00
2022-11-20T11:25:24.425Z,23.10
2022-11-20T11:27:53.855Z,27.10
2022-11-20T11:30:21.903Z,24.38
2022-11-20T11:32:49.783Z,28.48
2022-11-20T11:35:29.670Z,26.33
2022-11-20T11:38:13.643Z,27.50
2022-11-20T11:40:41.864Z,25.25
2022-11-20T11:43:41.414Z,24.25
2022-11-20T11:46:36.177Z,24.10
2022-11-20T11:49:10.073Z,27.48
2022-11-20T11:52:20.534Z,25.23
2022-11-20T11:55:10.304Z,29.58
2022-11-20T11:57:57.400Z,23.60
2022-11-20T12:00:24.878Z,25.30
2022-11-20T12:03:16.614Z,26.92
2022-11-20T12:05:49.298Z,30.45
2022-11-20T12:08:26.715Z,27.77
2022-11-20T12:11:21.494Z,25.02
2022-11-20T12:14:16.332Z,25.73
2022-11-20T12:16:47.278Z,23.52
2022-11-20T12:19:15.881Z,23.13
2022-11-20T12:22:21.404Z,20.58
2022-11-20T12:25:03.891Z,22.00
2022-11-20T12:27:41.234Z,21.27
2022-11-20T12:30:15.719Z,20.23
2022-11-20T12:32:49.850Z,20.50
2022-11-20T12:35:48.434Z,22.48
2022-11-20T12:38:28.668Z,24.15
2022-11-20T12:41:14.997Z,18.98
2022-11-20T12:44:22.367Z,19.10
2022-11-20T12:47:09.757Z,18.63
2022-11-20T12:49:58.150Z,22.38
2022-11-20T12:52:49.693Z,17.00
2022-11-20T12:55:35.334Z,18.10
2022-11-20T12:58:31.931Z,21.75
2022-11-20T13:01:48.808Z,15.85
2022-11-20T13:04:51.797Z,17.95
2022-11-20T13:07:22.581Z,16.88
2022-11-20T13:09:52.077Z,17.88
2022-11-20T13:12:25.856Z,18.23
2022-11-20T13:15:12.827Z,16.80
2022-11-20T13:17:47.917Z,15.48
2022-11-20T13:20:19.077Z,17.83
2022-11-20T13:22:52.058Z,13.32
2022-11-20T13:25:36.954Z,14.57
2022-11-20T13:28:11.621Z,13.13
2022-11-20T13:30:54.715Z,14.55
2022-11-20T13:33:34.113Z,13.20
2022-11-20T13:36:05.234Z,16.85
2022-11-20T13:38:50.669Z,14.50
2022-11-20T13:41:38.867Z,14.98
2022-11-20T13:44:12.377Z,15.18
2022-11-20T13:46:43.858Z,13.80
2022-11-20T13:49:27.068Z,14.90
2022-11-20T13:52:10.132Z,15.90
2022-11-20T13:54:52.753Z,18.20
2022-11-20T13:57:40.945Z,15.02
2022-11-20T14:00:18.514Z,15.63
2022-11-20T14:02:59.035Z,19.08
2022-11-20T14:05:26.734Z,14.15
2022-11-20T14:07:55.351Z,12.82
2022-11-20T14:10:32.296Z,13.38
2022-11-20T14:13:10.934Z,14.55
2022-11-20T14:15:44.895Z,16.90
2022-11-20T14:18:25.705Z,12.13
2022-11-20T14:20:56.525Z,10.00
2022-11-20T14:23:30.190Z,9.23
2022-11-20T14:25:58.925Z,11.50
2022-11-20T14:28:32.037Z,12.18
2022-11-20T14:31:00.269Z,13.65
2022-11-20T14:33:28.842Z,10.80
2022-11-20T14:35:58.974Z,9.40
2022-11-20T14:38:29.841Z,9.43
2022-11-20T14:41:22.182Z,9.70
2022-11-20T14:43:58.002Z,12.10
2022-11-20T14:46:26.048Z,11.70
2022-11-20T14:49:01.402Z,14.95
2022-11-20T14:51:35.988Z,11.23
2022-11-20T14:54:13.859Z,9.98
2022-11-20T14:56:42.890Z,10.18
2022-11-20T14:59:10.771Z,10.15
2022-11-20T15:01:39.022Z,11.00
2022-11-20T15:04:10.556Z,11.25
2022-11-20T15:06:49.984Z,11.07
2022-11-20T15:09:18.360Z,13.45
2022-11-20T15:11:57.109Z,11.18
2022-11-20T15:14:26.457Z,18.10
2022-11-20T15:16:54.549Z,11.95
2022-11-20T15:19:27.690Z,12.20
2022-11-20T15:21:55.390Z,13.32
2022-11-20T15:24:29.116Z,11.55
2022-11-20T15:26:56.825Z,13.38
2022-11-20T15:29:25.268Z,14.00
2022-11-20T15:31:54.743Z,12.07
2022-11-20T15:34:22.474Z,13.45
2022-11-20T15:36:50.604Z,12.02
2022-11-20T15:39:19.042Z,14.45
2022-11-20T15:41:46.967Z,13.45
2022-11-20T15:44:14.845Z,14.00
2022-11-20T15:46:45.524Z,17.10
2022-11-20T15:49:17.480Z,13.70
2022-11-20T15:51:47.723Z,16.48
2022-11-20T15:54:21.708Z,15.07
2022-11-20T15:56:55.223Z,15.02
2022-11-20T15:59:22.927Z,14.25
2022-11-20T16:01:50.520Z,14.85
2022-11-20T16:04:19.397Z,14.30
2022-11-20T16:06:47.107Z,13.75
2022-11-20T16:09:15.427Z,16.58
2022-11-20T16:11:43.401Z,13.25
2022-11-20T16:14:30.960Z,15.30
2022-11-20T16:16:58.852Z,17.67
2022-11-20T16:19:26.354Z,15.07
2022-11-20T16:21:56.081Z,14.48
2022-11-20T16:24:27.294Z,12.05
2022-11-20T16:26:56.922Z,15.88
2022-11-20T16:29:24.678Z,14.30
2022-11-20T16:31:52.207Z,16.77
2022-11-20T16:34:19.875Z,14.73
2022-11-20T16:36:48.055Z,17.00
2022-11-20T16:39:20.513Z,16.77
2022-11-20T16:41:51.647Z,15.32
2022-11-20T16:44:19.270Z,14.95
2022-11-20T16:46:47.381Z,15.73
2022-11-20T16:49:15.444Z,14.48
2022-11-20T16:51:44.106Z,12.25
2022-11-20T16:54:16.498Z,13.25
2022-11-20T16:56:52.025Z,12.57
2022-11-20T16:59:21.646Z,12.52
2022-11-20T17:01:50.106Z,12.35
2022-11-20T17:04:17.941Z,11.32
2022-11-20T17:06:45.804Z,11.95
2022-11-20T17:09:14.692Z,11.82
2022-11-20T17:11:42.388Z,12.15
2022-11-20T17:14:12.611Z,10.68
2022-11-20T17:16:43.362Z,13.38
2022-11-20T17:19:12.401Z,11.98
2022-11-20T17:21:40.456Z,14.65
2022-11-20T17:24:11.347Z,12.82
2022-11-20T17:26:40.940Z,11.52
2022-11-20T17:34:08.866Z,12.02
2022-11-20T17:36:40.722Z,12.80
2022-11-20T17:39:12.911Z,12.30
2022-11-20T17:41:41.070Z,14.43
2022-11-20T17:44:13.024Z,13.70
2022-11-20T17:46:40.830Z,21.23
2022-11-20T17:49:08.870Z,15.02
2022-11-20T17:51:37.145Z,20.73
2022-11-20T17:54:07.525Z,16.27
2022-11-20T17:56:55.615Z,15.38
2022-11-20T17:59:23.212Z,15.60
2022-11-20T18:01:51.889Z,17.15
2022-11-20T18:04:19.446Z,19.25
2022-11-20T18:06:47.946Z,15.77
2022-11-20T18:09:15.665Z,19.60
2022-11-20T18:11:43.981Z,18.60
2022-11-20T18:14:36.310Z,21.27
2022-11-20T18:17:22.817Z,19.50
2022-11-20T18:20:14.114Z,18.02
2022-11-20T18:22:38.822Z,18.02
2022-11-20T18:25:06.987Z,25.23
2022-11-20T18:27:34.711Z,18.90
2022-11-20T18:30:02.334Z,21.13
2022-11-20T18:32:30.133Z,20.10
2022-11-20T18:34:57.921Z,17.90
2022-11-20T18:37:26.194Z,17.80
2022-11-20T18:39:53.790Z,18.77
2022-11-20T18:42:39.873Z,18.85
2022-11-20T18:45:07.896Z,21.33
2022-11-20T18:47:38.096Z,27.50
2022-11-20T18:50:07.454Z,23.33
2022-11-20T18:52:40.839Z,18.70
2022-11-20T18:55:10.418Z,21.42
2022-11-20T18:57:38.078Z,20.80
2022-11-20T19:00:09.356Z,23.73
2022-11-20T19:02:42.126Z,19.35
2022-11-20T19:05:12.218Z,24.85
2022-11-20T19:07:41.253Z,30.27
2022-11-20T19:10:10.331Z,24.90
2022-11-20T19:12:38.761Z,24.92
2022-11-20T19:15:07.595Z,24.88
2022-11-20T19:17:35.881Z,22.27
2022-11-20T19:20:03.625Z,27.55
2022-11-20T19:22:31.325Z,23.15
2022-11-20T19:24:58.871Z,27.90
2022-11-20T19:27:26.879Z,23.38
2022-11-20T19:29:58.848Z,24.38
2022-11-20T19:32:26.878Z,26.52
2022-11-20T19:34:54.416Z,24.60
2022-11-20T19:37:22.307Z,27.27
2022-11-20T19:39:49.864Z,25.55
2022-11-20T19:42:18.153Z,27.02
2022-11-20T19:44:45.753Z,29.55
2022-11-20T19:47:14.897Z,29.33
2022-11-20T19:49:42.698Z,30.95
2022-11-20T19:52:10.390Z,31.60
2022-11-20T19:54:38.207Z,27.63
2022-11-20T19:57:05.816Z,28.60
2022-11-20T19:59:33.604Z,35.10
2022-11-20T20:02:03.433Z,28.02
2022-11-20T20:04:31.049Z,30.40
2022-11-20T20:06:58.687Z,30.08
2022-11-20T20:09:27.125Z,31.00
2022-11-20T20:11:54.825Z,32.75
2022-11-20T20:14:22.321Z,28.95
2022-11-20T20:16:50.319Z,33.38
2022-11-20T20:19:18.066Z,40.55
2022-11-20T20:21:48.018Z,40.60
2022-11-20T20:24:15.738Z,34.73
2022-11-20T20:26:44.520Z,40.25
2022-11-20T20:29:12.081Z,44.45
2022-11-20T20:31:41.105Z,42.30
2022-11-20T20:34:08.687Z,36.20
2022-11-20T20:36:36.800Z,44.10
2022-11-20T20:39:04.498Z,45.72
2022-11-20T20:41:32.799Z,52.33
2022-11-20T20:44:20.253Z,54.75
2022-11-20T20:46:52.627Z,53.40
2022-11-20T20:49:20.441Z,51.53
2022-11-20T20:51:48.329Z,48.45
2022-11-20T20:54:18.898Z,50.75
2022-11-20T20:56:47.081Z,48.60
2022-11-20T20:59:14.697Z,48.38
2022-11-20T21:01:42.463Z,43.20
2022-11-20T21:04:11.418Z,46.40
2022-11-20T21:06:39.006Z,42.67
2022-11-20T21:09:06.852Z,39.78
2022-11-20T21:11:34.501Z,35.55
2022-11-20T21:14:02.070Z,46.08
2022-11-20T21:16:40.883Z,36.15
2022-11-20T21:19:08.837Z,41.65
2022-11-20T21:21:55.448Z,38.63
2022-11-20T21:24:23.592Z,42.40
2022-11-20T21:26:52.324Z,42.50
2022-11-20T21:29:25.158Z,42.75
2022-11-20T21:31:54.064Z,42.38
2022-11-20T21:36:51.778Z,37.15
2022-11-20T21:39:21.840Z,37.90
2022-11-20T21:41:49.471Z,41.15
2022-11-20T21:44:30.988Z,42.42
2022-11-20T21:46:59.475Z,52.10
2022-11-20T21:49:27.254Z,52.13
2022-11-20T21:51:54.915Z,45.33
2022-11-20T21:54:23.113Z,48.38
2022-11-20T21:56:51.094Z,51.10
2022-11-20T21:59:18.762Z,54.10
2022-11-20T22:01:46.848Z,50.90
2022-11-20T22:04:17.978Z,53.97
2022-11-20T22:06:45.787Z,61.38
2022-11-20T22:09:14.096Z,59.28
2022-11-20T22:11:41.841Z,68.55
2022-11-20T22:14:21.015Z,68.28
2022-11-20T22:16:50.986Z,68.93
2022-11-20T22:19:20.720Z,64.53
2022-11-20T22:21:50.660Z,64.80
2022-11-20T22:24:20.368Z,57.72
2022-11-20T22:26:48.326Z,60.33
2022-11-20T22:29:18.203Z,63.15
2022-11-20T22:31:46.437Z,55.65
2022-11-20T22:34:14.622Z,63.45
2022-11-20T22:36:42.824Z,63.60
2022-11-20T22:39:10.553Z,70.22
2022-11-20T22:41:38.196Z,62.10
2022-11-20T22:44:07.860Z,70.97
2022-11-20T22:49:07.432Z,71.88
2022-11-20T22:51:38.281Z,65.10
2022-11-20T22:54:06.662Z,68.43
2022-11-20T22:56:34.928Z,64.25
2022-11-20T22:59:02.665Z,59.67
2022-11-20T23:01:35.558Z,55.40
2022-11-20T23:04:06.117Z,50.83
2022-11-20T23:06:35.802Z,55.83
2022-11-20T23:09:05.118Z,61.45
2022-11-20T23:11:33.267Z,57.28
2022-11-20T23:14:12.293Z,52.95
2022-11-20T23:16:40.150Z,54.40
2022-11-20T23:19:10.799Z,64.63
2022-11-20T23:21:41.323Z,53.80
2022-11-20T23:24:09.962Z,56.33
2022-11-20T23:26:40.761Z,55.63
2022-11-20T23:29:08.928Z,71.22
2022-11-20T23:31:37.438Z,62.42
2022-11-20T23:34:05.379Z,65.53
2022-11-20T23:36:33.129Z,67.45
2022-11-20T23:39:00.807Z,58.83
2022-11-20T23:41:28.367Z,51.83
2022-11-20T23:43:56.223Z,50.17
2022-11-20T23:46:23.785Z,49.95
2022-11-20T23:48:51.397Z,49.45
2022-11-20T23:51:19.238Z,54.47
2022-11-20T23:53:48.198Z,50.33
2022-11-20T23:56:15.861Z,54.03
2022-11-20T23:58:44.324Z,55.60
